Time;durP1;ratioP1;P1;durP2;ratioP2;P2;SDS_P1;SDS_P2;PMS_P1;PMS_P2;Temp;Humidity;BMP_temperature;BMP_pressure;BME280_temperature;BME280_humidity;BME280_pressure;Samples;Min_cycle;Max_cycle;Signal;HPM_P1;HPM_P2
2023/10/21 00:01:05;;;;;;;9.38;3.97;;;;;;;;;;5106134;28;20332;-38
2023/10/21 00:03:32;;;;;;;7.07;3.88;;;;;;;;;;5105938;28;20048;-35
2023/10/21 00:05:59;;;;;;;7.38;3.40;;;;;;;;;;5106090;28;20012;-37
2023/10/21 00:08:26;;;;;;;7.65;3.53;;;;;;;;;;5105586;28;20339;-37
2023/10/21 00:11:05;;;;;;;5.60;3.50;;;;;;;;;;5105363;28;20022;-37
2023/10/21 00:13:32;;;;;;;8.20;5.53;;;;;;;;;;5105741;28;20028;-35
2023/10/21 00:15:59;;;;;;;5.78;3.60;;;;;;;;;;5105552;28;20031;-38
2023/10/21 00:18:26;;;;;;;5.55;3.38;;;;;;;;;;5105713;28;20311;-34
2023/10/21 00:20:55;;;;;;;6.88;4.68;;;;;;;;;;5105646;28;20095;-44
2023/10/21 00:23:25;;;;;;;8.88;4.22;;;;;;;;;;5105168;28;20107;-36
2023/10/21 00:25:51;;;;;;;8.93;4.90;;;;;;;;;;5104275;28;20027;-45
2023/10/21 00:28:18;;;;;;;12.10;6.95;;;;;;;;;;5108464;27;20055;-36
2023/10/21 00:30:47;;;;;;;13.40;5.93;;;;;;;;;;5094330;28;20073;-41
2023/10/21 00:33:14;;;;;;;8.57;5.45;;;;;;;;;;5117153;28;20028;-33
2023/10/21 00:35:47;;;;;;;12.00;8.35;;;;;;;;;;5125053;28;20016;-35
2023/10/21 00:38:14;;;;;;;11.88;8.32;;;;;;;;;;5123790;28;20047;-40
2023/10/21 00:40:49;;;;;;;14.68;11.02;;;;;;;;;;5123913;28;20020;-38
2023/10/21 00:43:31;;;;;;;14.50;9.85;;;;;;;;;;5114712;28;20047;-36
2023/10/21 00:45:58;;;;;;;15.50;8.43;;;;;;;;;;5116488;28;20040;-38
2023/10/21 00:48:24;;;;;;;7.28;5.72;;;;;;;;;;5109548;27;20030;-40
2023/10/21 00:50:54;;;;;;;10.77;5.43;;;;;;;;;;5118196;28;20215;-43
2023/10/21 00:53:22;;;;;;;10.68;5.03;;;;;;;;;;5125209;28;20215;-41
2023/10/21 00:55:48;;;;;;;7.07;4.60;;;;;;;;;;5125238;28;20058;-37
2023/10/21 00:58:15;;;;;;;8.45;5.15;;;;;;;;;;5115002;28;20046;-35
2023/10/21 01:00:42;;;;;;;5.65;3.20;;;;;;;;;;5115086;27;20066;-36
2023/10/21 01:03:09;;;;;;;8.13;3.33;;;;;;;;;;5125006;28;20035;-37
2023/10/21 01:05:37;;;;;;;8.35;3.38;;;;;;;;;;5124540;28;20065;-42
2023/10/21 01:08:04;;;;;;;8.90;3.40;;;;;;;;;;5123145;28;20032;-43
2023/10/21 01:10:31;;;;;;;7.57;3.25;;;;;;;;;;5118056;28;20262;-37
2023/10/21 01:12:57;;;;;;;6.75;3.15;;;;;;;;;;5117496;28;20299;-40
2023/10/21 01:15:24;;;;;;;6.10;2.63;;;;;;;;;;5105538;27;20020;-44
2023/10/21 01:17:50;;;;;;;5.90;2.53;;;;;;;;;;5124808;28;20027;-45
2023/10/21 01:20:18;;;;;;;5.57;2.75;;;;;;;;;;5124899;28;20098;-43
2023/10/21 01:22:44;;;;;;;4.20;2.55;;;;;;;;;;5118439;28;20347;-41
2023/10/21 01:25:12;;;;;;;12.75;2.85;;;;;;;;;;5124865;28;20239;-46
2023/10/21 01:27:39;;;;;;;6.32;2.40;;;;;;;;;;5124057;28;20039;-47
2023/10/21 01:30:06;;;;;;;6.78;2.35;;;;;;;;;;5122957;28;20019;-35
2023/10/21 01:32:33;;;;;;;4.75;2.42;;;;;;;;;;5123419;28;20027;-44
2023/10/21 01:35:00;;;;;;;4.38;2.92;;;;;;;;;;5124590;28;20203;-39
2023/10/21 01:37:27;;;;;;;5.28;2.50;;;;;;;;;;5124576;28;20234;-35
2023/10/21 01:39:54;;;;;;;5.05;2.45;;;;;;;;;;5124104;28;20038;-39
2023/10/21 01:42:21;;;;;;;8.65;2.60;;;;;;;;;;5106536;28;20097;-36
2023/10/21 01:44:49;;;;;;;6.32;2.55;;;;;;;;;;5124766;28;20034;-41
2023/10/21 01:47:16;;;;;;;7.15;2.92;;;;;;;;;;5124553;28;20091;-35
2023/10/21 01:49:42;;;;;;;4.07;2.28;;;;;;;;;;5111304;28;20039;-45
2023/10/21 01:52:09;;;;;;;5.15;2.65;;;;;;;;;;5122333;28;20327;-42
2023/10/21 01:54:37;;;;;;;6.93;3.00;;;;;;;;;;5122824;28;20023;-40
2023/10/21 01:57:04;;;;;;;10.88;2.70;;;;;;;;;;5124483;28;20027;-42
2023/10/21 01:59:31;;;;;;;7.78;3.05;;;;;;;;;;5124948;28;20043;-41
2023/10/21 02:02:01;;;;;;;8.65;2.97;;;;;;;;;;5117343;28;20346;-36
2023/10/21 02:04:27;;;;;;;5.65;2.83;;;;;;;;;;5104316;28;20040;-43
2023/10/21 02:06:55;;;;;;;6.97;3.08;;;;;;;;;;5103648;28;20115;-49
2023/10/21 02:09:22;;;;;;;4.75;2.85;;;;;;;;;;5103560;28;20201;-34
2023/10/21 02:11:48;;;;;;;6.22;3.53;;;;;;;;;;5103680;28;20074;-40
2023/10/21 02:14:15;;;;;;;9.13;3.58;;;;;;;;;;5104431;28;20169;-38
2023/10/21 02:16:41;;;;;;;5.47;3.03;;;;;;;;;;5104032;28;20216;-37
2023/10/21 02:19:08;;;;;;;5.40;3.42;;;;;;;;;;5104103;28;20271;-40
2023/10/21 02:21:35;;;;;;;5.05;3.03;;;;;;;;;;5106968;28;20036;-36
2023/10/21 02:24:02;;;;;;;9.27;3.47;;;;;;;;;;5112193;28;20091;-39
2023/10/21 02:26:29;;;;;;;11.27;7.20;;;;;;;;;;5103748;28;20040;-36
2023/10/21 02:28:57;;;;;;;16.05;8.73;;;;;;;;;;5103862;28;20027;-36
2023/10/21 02:31:23;;;;;;;13.32;11.02;;;;;;;;;;5103689;28;20039;-48
2023/10/21 02:33:50;;;;;;;14.60;9.77;;;;;;;;;;5104111;28;20313;-38
2023/10/21 02:36:18;;;;;;;8.32;5.60;;;;;;;;;;5103521;28;20016;-40
2023/10/21 02:38:45;;;;;;;7.30;3.40;;;;;;;;;;5103353;28;20026;-35
2023/10/21 02:41:11;;;;;;;6.32;3.58;;;;;;;;;;5103450;28;20220;-37
2023/10/21 02:43:38;;;;;;;7.82;4.28;;;;;;;;;;5103644;28;20030;-41
2023/10/21 02:46:11;;;;;;;9.27;4.20;;;;;;;;;;5103645;28;20027;-37
2023/10/21 02:48:38;;;;;;;7.43;3.30;;;;;;;;;;5103190;28;20220;-44
2023/10/21 02:51:11;;;;;;;10.77;4.18;;;;;;;;;;5106132;28;20097;-38
2023/10/21 02:53:38;;;;;;;10.55;3.72;;;;;;;;;;5119441;28;20039;-36
2023/10/21 02:56:05;;;;;;;9.85;3.50;;;;;;;;;;5120835;28;20024;-36
2023/10/21 02:58:32;;;;;;;6.60;3.50;;;;;;;;;;5109004;28;20024;-36
2023/10/21 03:01:01;;;;;;;7.53;3.33;;;;;;;;;;5107853;28;20082;-40
2023/10/21 03:03:28;;;;;;;12.88;3.20;;;;;;;;;;5107332;28;20231;-37
2023/10/21 03:05:55;;;;;;;7.43;2.80;;;;;;;;;;5107232;28;20040;-36
2023/10/21 03:08:22;;;;;;;6.25;2.85;;;;;;;;;;5107581;28;20040;-34
2023/10/21 03:10:48;;;;;;;7.25;3.00;;;;;;;;;;5089108;28;20220;-39
2023/10/21 03:13:16;;;;;;;9.90;2.95;;;;;;;;;;5107283;28;20086;-41
2023/10/21 03:15:42;;;;;;;5.82;3.00;;;;;;;;;;5107296;28;20308;-39
2023/10/21 03:18:10;;;;;;;3.90;2.67;;;;;;;;;;5107034;28;20043;-37
2023/10/21 03:20:37;;;;;;;5.30;2.85;;;;;;;;;;5106976;28;20024;-42
2023/10/21 03:23:04;;;;;;;7.82;3.08;;;;;;;;;;5107434;28;20036;-37
2023/10/21 03:25:31;;;;;;;5.53;2.80;;;;;;;;;;5109642;28;20049;-46
2023/10/21 03:27:57;;;;;;;3.95;2.40;;;;;;;;;;5118492;28;20223;-38
2023/10/21 03:30:25;;;;;;;5.75;2.75;;;;;;;;;;5127152;28;20039;-34
2023/10/21 03:32:52;;;;;;;6.15;2.90;;;;;;;;;;5127006;28;20019;-36
2023/10/21 03:35:18;;;;;;;6.90;2.90;;;;;;;;;;5119247;28;20045;-39
2023/10/21 03:37:45;;;;;;;7.43;2.72;;;;;;;;;;5107199;28;20339;-35
2023/10/21 03:40:12;;;;;;;6.90;3.05;;;;;;;;;;5106518;28;20062;-40
2023/10/21 03:42:39;;;;;;;5.32;2.88;;;;;;;;;;5106626;28;20036;-42
2023/10/21 03:45:07;;;;;;;11.35;3.33;;;;;;;;;;5106791;28;20315;-38
2023/10/21 03:47:34;;;;;;;75.40;6.45;;;;;;;;;;5117038;27;20020;-44
2023/10/21 03:50:02;;;;;;;105.53;10.07;;;;;;;;;;5124871;28;20050;-41
2023/10/21 03:52:29;;;;;;;116.22;11.82;;;;;;;;;;5119762;28;20078;-42
2023/10/21 03:54:56;;;;;;;62.83;9.55;;;;;;;;;;5106045;28;20016;-42
2023/10/21 03:57:23;;;;;;;51.95;8.73;;;;;;;;;;5112700;28;20329;-43
2023/10/21 03:59:50;;;;;;;33.95;6.93;;;;;;;;;;5126248;28;20027;-43
2023/10/21 04:02:17;;;;;;;22.75;4.82;;;;;;;;;;5126599;28;20255;-41
2023/10/21 04:04:43;;;;;;;31.33;5.55;;;;;;;;;;5126267;28;20062;-39
2023/10/21 04:07:10;;;;;;;15.23;3.90;;;;;;;;;;5126432;28;20036;-43
2023/10/21 04:09:37;;;;;;;10.90;3.70;;;;;;;;;;5126254;28;20405;-36
2023/10/21 04:12:04;;;;;;;12.20;3.25;;;;;;;;;;5126738;28;20032;-40
2023/10/21 04:14:30;;;;;;;7.13;2.78;;;;;;;;;;5126917;28;20024;-37
2023/10/21 04:16:57;;;;;;;6.85;2.65;;;;;;;;;;5126806;28;20060;-44
2023/10/21 04:19:24;;;;;;;9.05;2.90;;;;;;;;;;5126519;28;20043;-42
2023/10/21 04:21:50;;;;;;;9.77;2.90;;;;;;;;;;5126178;28;20254;-54
2023/10/21 04:24:17;;;;;;;5.75;2.25;;;;;;;;;;5126129;28;20027;-47
2023/10/21 04:26:44;;;;;;;8.00;2.50;;;;;;;;;;5126449;28;20019;-49
2023/10/21 04:29:10;;;;;;;4.78;2.05;;;;;;;;;;5125906;28;20336;-47
2023/10/21 04:31:38;;;;;;;4.03;2.08;;;;;;;;;;5126301;28;20047;-42
2023/10/21 04:34:05;;;;;;;8.45;2.17;;;;;;;;;;5125755;28;20020;-34
2023/10/21 04:36:32;;;;;;;3.85;2.20;;;;;;;;;;5126476;28;20300;-38
2023/10/21 04:38:58;;;;;;;5.45;2.42;;;;;;;;;;5108148;28;20019;-38
2023/10/21 04:41:25;;;;;;;6.55;2.63;;;;;;;;;;5126413;28;20016;-40
2023/10/21 04:43:52;;;;;;;5.95;2.40;;;;;;;;;;5125689;28;20054;-46
2023/10/21 04:46:18;;;;;;;4.78;2.17;;;;;;;;;;5126233;28;20023;-48
2023/10/21 04:48:45;;;;;;;6.22;2.83;;;;;;;;;;5125504;28;20223;-40
2023/10/21 04:51:11;;;;;;;5.80;2.60;;;;;;;;;;5126044;28;20035;-41
2023/10/21 04:53:38;;;;;;;4.18;2.40;;;;;;;;;;5125405;28;20046;-45
2023/10/21 04:56:05;;;;;;;10.27;3.05;;;;;;;;;;5125484;28;20043;-45
2023/10/21 04:58:32;;;;;;;102.65;9.70;;;;;;;;;;5125526;28;20027;-38
2023/10/21 05:00:58;;;;;;;97.40;9.50;;;;;;;;;;5117682;28;20107;-36
2023/10/21 05:03:25;;;;;;;124.15;12.05;;;;;;;;;;5104925;28;20040;-39
2023/10/21 05:05:51;;;;;;;118.90;11.73;;;;;;;;;;5104864;28;20082;-33
2023/10/21 05:08:18;;;;;;;99.50;11.30;;;;;;;;;;5104814;28;20124;-35
2023/10/21 05:10:45;;;;;;;90.32;9.95;;;;;;;;;;5104570;28;20028;-36
2023/10/21 05:13:11;;;;;;;71.28;9.07;;;;;;;;;;5104845;28;20346;-39
2023/10/21 05:15:38;;;;;;;37.90;5.55;;;;;;;;;;5104183;28;20040;-41
2023/10/21 05:18:05;;;;;;;33.20;5.75;;;;;;;;;;5107584;27;20377;-34
2023/10/21 05:20:31;;;;;;;24.77;4.70;;;;;;;;;;5119871;28;20098;-40
2023/10/21 05:22:58;;;;;;;28.48;4.43;;;;;;;;;;5118784;28;20028;-40
2023/10/21 05:25:25;;;;;;;18.45;3.65;;;;;;;;;;5113266;28;20027;-37
2023/10/21 05:27:51;;;;;;;20.35;3.97;;;;;;;;;;5104321;28;20035;-40
2023/10/21 05:30:18;;;;;;;13.10;3.80;;;;;;;;;;5104326;28;20020;-39
2023/10/21 05:32:45;;;;;;;11.35;3.80;;;;;;;;;;5104262;28;20073;-39
2023/10/21 05:35:11;;;;;;;10.40;3.60;;;;;;;;;;5104516;28;20184;-39
2023/10/21 05:37:38;;;;;;;12.20;3.63;;;;;;;;;;5104301;28;20316;-42
2023/10/21 05:40:05;;;;;;;9.55;3.30;;;;;;;;;;5104180;28;20216;-47
2023/10/21 05:42:33;;;;;;;5.15;3.03;;;;;;;;;;5104259;28;20429;-42
2023/10/21 05:45:00;;;;;;;7.97;3.13;;;;;;;;;;5104074;28;20020;-39
2023/10/21 05:47:26;;;;;;;6.00;3.30;;;;;;;;;;5104116;28;20073;-46
2023/10/21 05:49:53;;;;;;;9.02;2.95;;;;;;;;;;5104263;28;20032;-39
2023/10/21 05:52:20;;;;;;;5.13;3.17;;;;;;;;;;5108200;28;20016;-37
2023/10/21 05:54:47;;;;;;;4.57;2.85;;;;;;;;;;5124295;28;20065;-39
2023/10/21 05:57:13;;;;;;;7.57;3.25;;;;;;;;;;5124262;28;20068;-42
2023/10/21 05:59:40;;;;;;;6.97;2.95;;;;;;;;;;5124411;28;20057;-53
2023/10/21 06:02:06;;;;;;;4.03;2.97;;;;;;;;;;5124374;28;20039;-40
2023/10/21 06:04:33;;;;;;;6.00;2.97;;;;;;;;;;5124163;28;20072;-39
2023/10/21 06:07:00;;;;;;;5.15;2.90;;;;;;;;;;5124307;28;20023;-46
2023/10/21 06:09:27;;;;;;;4.68;2.80;;;;;;;;;;5124260;28;20091;-40
2023/10/21 06:11:54;;;;;;;6.38;2.92;;;;;;;;;;5124568;28;20031;-40
2023/10/21 06:14:21;;;;;;;5.38;2.90;;;;;;;;;;5124354;28;20026;-40
2023/10/21 06:16:48;;;;;;;3.65;2.63;;;;;;;;;;5124592;28;20020;-40
2023/10/21 06:19:16;;;;;;;4.38;2.80;;;;;;;;;;5123948;28;20327;-49
2023/10/21 06:21:43;;;;;;;6.57;3.45;;;;;;;;;;5124587;28;20023;-41
2023/10/21 06:24:09;;;;;;;5.63;3.17;;;;;;;;;;5124355;28;20041;-39
2023/10/21 06:26:36;;;;;;;7.30;2.78;;;;;;;;;;5126327;28;20032;-39
2023/10/21 06:29:03;;;;;;;9.38;3.45;;;;;;;;;;5128126;28;20034;-40
2023/10/21 06:31:31;;;;;;;7.22;3.47;;;;;;;;;;5128522;28;20024;-41
2023/10/21 06:33:59;;;;;;;6.80;3.42;;;;;;;;;;5127955;28;20068;-39
2023/10/21 06:36:26;;;;;;;4.65;3.05;;;;;;;;;;5128387;28;20026;-48
2023/10/21 06:38:52;;;;;;;5.47;3.05;;;;;;;;;;5121250;28;20024;-40
2023/10/21 06:41:19;;;;;;;5.32;3.17;;;;;;;;;;5117132;28;20304;-41
2023/10/21 06:43:46;;;;;;;5.38;3.30;;;;;;;;;;5107453;28;20016;-42
2023/10/21 06:46:13;;;;;;;4.07;3.38;;;;;;;;;;5107855;28;20073;-40
2023/10/21 06:48:40;;;;;;;4.05;3.22;;;;;;;;;;5107114;28;20052;-39
2023/10/21 06:51:07;;;;;;;4.78;3.42;;;;;;;;;;5107307;28;20020;-43
2023/10/21 06:53:33;;;;;;;4.70;3.40;;;;;;;;;;5107273;28;20216;-39
2023/10/21 06:56:00;;;;;;;4.57;3.50;;;;;;;;;;5107440;28;20024;-39
2023/10/21 06:58:27;;;;;;;4.03;3.42;;;;;;;;;;5107344;28;20020;-39
2023/10/21 07:00:56;;;;;;;4.85;3.50;;;;;;;;;;5107467;28;20047;-46
2023/10/21 07:03:22;;;;;;;6.47;3.58;;;;;;;;;;5107972;28;20035;-40
2023/10/21 07:05:49;;;;;;;6.05;3.80;;;;;;;;;;5107371;28;20020;-46
2023/10/21 07:08:16;;;;;;;4.88;3.53;;;;;;;;;;5106887;28;20077;-43
2023/10/21 07:10:43;;;;;;;4.88;3.60;;;;;;;;;;5107074;28;20028;-43
2023/10/21 07:13:10;;;;;;;7.93;3.88;;;;;;;;;;5106859;28;20397;-40
2023/10/21 07:15:36;;;;;;;6.75;4.00;;;;;;;;;;5107439;28;20027;-45
2023/10/21 07:18:03;;;;;;;6.93;4.00;;;;;;;;;;5106908;28;20032;-43
2023/10/21 07:20:30;;;;;;;6.38;3.65;;;;;;;;;;5107068;28;20034;-40
2023/10/21 07:22:57;;;;;;;4.43;3.67;;;;;;;;;;5107289;28;20224;-41
2023/10/21 07:25:24;;;;;;;4.80;3.83;;;;;;;;;;5106788;28;20032;-40
2023/10/21 07:27:50;;;;;;;6.90;3.88;;;;;;;;;;5106605;28;20031;-43
2023/10/21 07:30:17;;;;;;;7.05;3.58;;;;;;;;;;5106539;28;20381;-44
2023/10/21 07:32:44;;;;;;;4.65;3.40;;;;;;;;;;5106567;28;20032;-39
2023/10/21 07:35:11;;;;;;;6.55;3.75;;;;;;;;;;5106406;28;20061;-48
2023/10/21 07:37:37;;;;;;;3.78;3.45;;;;;;;;;;5106024;28;20349;-45
2023/10/21 07:40:05;;;;;;;4.75;3.38;;;;;;;;;;5114616;28;20326;-43
2023/10/21 07:42:32;;;;;;;4.90;3.05;;;;;;;;;;5126658;28;20031;-40
2023/10/21 07:44:58;;;;;;;4.60;3.08;;;;;;;;;;5116844;28;20024;-41
2023/10/21 07:47:25;;;;;;;3.95;3.17;;;;;;;;;;5122535;28;20043;-40
2023/10/21 07:49:52;;;;;;;3.83;3.20;;;;;;;;;;5126365;28;20043;-41
2023/10/21 07:52:18;;;;;;;4.30;2.80;;;;;;;;;;5108406;28;20023;-43
2023/10/21 07:54:45;;;;;;;3.33;2.97;;;;;;;;;;5126549;28;20058;-43
2023/10/21 07:57:12;;;;;;;4.13;2.90;;;;;;;;;;5126455;28;20077;-43
2023/10/21 07:59:38;;;;;;;4.50;2.75;;;;;;;;;;5126135;28;20087;-43
2023/10/21 08:02:05;;;;;;;3.45;2.00;;;;;;;;;;5126400;28;20047;-45
2023/10/21 08:04:32;;;;;;;3.78;2.25;;;;;;;;;;5126280;28;20240;-49
2023/10/21 08:06:59;;;;;;;3.03;2.25;;;;;;;;;;5126537;28;20027;-46
2023/10/21 08:09:26;;;;;;;3.58;2.20;;;;;;;;;;5126141;28;20055;-41
2023/10/21 08:11:53;;;;;;;2.75;2.50;;;;;;;;;;5126531;28;20071;-43
2023/10/21 08:14:19;;;;;;;2.83;2.22;;;;;;;;;;5126256;28;20073;-41
2023/10/21 08:16:46;;;;;;;3.30;2.30;;;;;;;;;;5126555;28;20027;-43
2023/10/21 08:19:16;;;;;;;2.28;2.08;;;;;;;;;;5125987;28;20034;-45
2023/10/21 08:21:42;;;;;;;3.78;2.33;;;;;;;;;;5125911;28;20046;-41
2023/10/21 08:24:09;;;;;;;3.28;1.98;;;;;;;;;;5126079;28;20039;-41
2023/10/21 08:26:37;;;;;;;2.00;1.80;;;;;;;;;;5126155;28;20019;-50
2023/10/21 08:29:03;;;;;;;2.42;2.00;;;;;;;;;;5125877;28;20098;-42
2023/10/21 08:31:30;;;;;;;5.85;2.30;;;;;;;;;;5126126;28;20294;-44
2023/10/21 08:33:57;;;;;;;4.10;2.00;;;;;;;;;;5125811;28;20027;-51
2023/10/21 08:36:23;;;;;;;2.45;2.10;;;;;;;;;;5126155;28;20295;-44
2023/10/21 08:38:50;;;;;;;3.38;2.10;;;;;;;;;;5125939;28;20100;-45
2023/10/21 08:41:17;;;;;;;2.67;1.92;;;;;;;;;;5125951;28;20019;-42
2023/10/21 08:43:47;;;;;;;3.60;2.38;;;;;;;;;;5126702;28;20092;-40
2023/10/21 08:46:15;;;;;;;3.25;2.28;;;;;;;;;;5125765;28;20097;-43
2023/10/21 08:48:46;;;;;;;2.97;2.22;;;;;;;;;;5125216;28;20204;-49
2023/10/21 08:51:16;;;;;;;4.70;2.10;;;;;;;;;;5124744;28;20090;-44
2023/10/21 08:53:44;;;;;;;3.78;2.10;;;;;;;;;;5125284;28;20340;-42
2023/10/21 08:56:11;;;;;;;4.72;2.08;;;;;;;;;;5125912;28;20015;-49
2023/10/21 08:58:38;;;;;;;3.75;2.25;;;;;;;;;;5125549;28;20035;-50
2023/10/21 09:01:05;;;;;;;3.85;2.20;;;;;;;;;;5125280;28;20104;-45
2023/10/21 09:03:35;;;;;;;5.22;2.30;;;;;;;;;;5125013;28;20096;-44
2023/10/21 09:06:03;;;;;;;2.92;2.28;;;;;;;;;;5125494;28;20024;-45
2023/10/21 09:08:34;;;;;;;5.03;2.25;;;;;;;;;;5125081;28;20038;-49
2023/10/21 09:11:02;;;;;;;7.10;2.25;;;;;;;;;;5125107;28;20040;-52
2023/10/21 09:13:30;;;;;;;8.75;2.50;;;;;;;;;;5124976;28;20266;-47
2023/10/21 09:15:57;;;;;;;11.30;3.80;;;;;;;;;;5125403;28;20034;-52
2023/10/21 09:18:24;;;;;;;16.83;4.65;;;;;;;;;;5124865;28;20068;-51
2023/10/21 09:20:51;;;;;;;31.17;5.65;;;;;;;;;;5125130;28;20330;-53
2023/10/21 09:23:17;;;;;;;52.78;7.40;;;;;;;;;;5125068;28;20042;-56
2023/10/21 09:25:51;;;;;;;70.03;9.30;;;;;;;;;;5125143;28;20039;-50
2023/10/21 09:28:24;;;;;;;92.13;11.48;;;;;;;;;;5124826;28;20038;-48
2023/10/21 09:30:58;;;;;;;122.97;11.10;;;;;;;;;;5125294;28;20306;-49
2023/10/21 09:33:26;;;;;;;82.43;9.75;;;;;;;;;;5125108;28;20175;-48
2023/10/21 09:36:03;;;;;;;68.35;7.53;;;;;;;;;;5124817;28;20023;-49
2023/10/21 09:38:39;;;;;;;57.33;7.53;;;;;;;;;;5125083;28;20027;-46
2023/10/21 09:41:10;;;;;;;39.53;5.80;;;;;;;;;;5125093;28;20299;-46
2023/10/21 09:43:41;;;;;;;32.60;5.10;;;;;;;;;;5124443;28;20019;-41
2023/10/21 09:46:11;;;;;;;25.17;4.80;;;;;;;;;;5124935;28;20323;-41
2023/10/21 09:48:43;;;;;;;29.02;4.88;;;;;;;;;;5124426;28;20038;-42
2023/10/21 09:51:10;;;;;;;18.55;4.15;;;;;;;;;;5124952;28;20031;-48
2023/10/21 09:53:41;;;;;;;16.88;3.90;;;;;;;;;;5124816;28;20028;-47
2023/10/21 09:56:11;;;;;;;17.10;3.92;;;;;;;;;;5124881;28;20267;-43
2023/10/21 09:58:43;;;;;;;14.77;3.75;;;;;;;;;;5124539;28;20024;-43
2023/10/21 10:01:13;;;;;;;11.10;3.60;;;;;;;;;;5124363;28;20355;-45
2023/10/21 10:03:43;;;;;;;12.70;3.20;;;;;;;;;;5124467;28;20225;-43
2023/10/21 10:06:10;;;;;;;9.07;3.28;;;;;;;;;;5124368;28;20034;-53
2023/10/21 10:08:37;;;;;;;8.20;3.53;;;;;;;;;;5124116;28;20027;-43
2023/10/21 10:11:13;;;;;;;9.05;3.28;;;;;;;;;;5124606;28;20296;-40
2023/10/21 10:13:42;;;;;;;7.40;2.72;;;;;;;;;;5124370;28;20036;-41
2023/10/21 10:16:28;;;;;;;6.72;2.90;;;;;;;;;;5124807;28;20086;-43
2023/10/21 10:18:57;;;;;;;8.40;2.58;;;;;;;;;;5124345;28;20035;-53
2023/10/21 10:21:25;;;;;;;6.25;2.28;;;;;;;;;;5124488;28;20032;-46
2023/10/21 10:23:53;;;;;;;3.33;1.90;;;;;;;;;;5124246;28;20032;-41
2023/10/21 10:26:39;;;;;;;3.67;2.10;;;;;;;;;;5124644;28;20015;-40
2023/10/21 10:29:25;;;;;;;3.45;2.08;;;;;;;;;;5124042;28;20038;-43
2023/10/21 10:32:14;;;;;;;3.45;1.80;;;;;;;;;;5124350;28;20023;-39
2023/10/21 10:34:54;;;;;;;3.40;1.90;;;;;;;;;;5124059;28;20200;-45
2023/10/21 10:37:34;;;;;;;4.88;1.90;;;;;;;;;;5124038;28;20040;-46
2023/10/21 10:40:05;;;;;;;5.43;1.50;;;;;;;;;;5124189;28;20087;-41
2023/10/21 10:42:35;;;;;;;3.00;1.60;;;;;;;;;;5123942;28;20036;-42
2023/10/21 10:45:03;;;;;;;2.78;1.50;;;;;;;;;;5124143;28;20196;-51
2023/10/21 10:47:29;;;;;;;3.20;1.40;;;;;;;;;;5123864;28;20035;-41
2023/10/21 10:50:00;;;;;;;2.47;1.10;;;;;;;;;;5123709;28;20016;-41
2023/10/21 10:52:28;;;;;;;1.98;1.13;;;;;;;;;;5123875;28;20019;-46
2023/10/21 10:54:54;;;;;;;1.83;1.10;;;;;;;;;;5123859;28;20038;-40
2023/10/21 10:57:22;;;;;;;4.10;1.52;;;;;;;;;;5124110;28;20017;-45
2023/10/21 10:59:50;;;;;;;7.78;1.73;;;;;;;;;;5123756;28;20030;-40
2023/10/21 11:02:17;;;;;;;6.60;1.63;;;;;;;;;;5123519;28;20044;-46
2023/10/21 11:04:48;;;;;;;3.78;1.50;;;;;;;;;;5123952;28;20046;-48
2023/10/21 11:07:21;;;;;;;5.07;1.45;;;;;;;;;;5124012;28;20272;-45
2023/10/21 11:09:59;;;;;;;5.53;1.48;;;;;;;;;;5123557;28;20042;-45
2023/10/21 11:12:27;;;;;;;3.70;1.20;;;;;;;;;;5123744;28;20072;-42
2023/10/21 11:14:54;;;;;;;3.58;1.20;;;;;;;;;;5127313;28;20028;-50
2023/10/21 11:17:21;;;;;;;3.55;1.40;;;;;;;;;;5127321;28;20023;-41
2023/10/21 11:19:48;;;;;;;12.13;2.88;;;;;;;;;;5127309;28;20031;-42
2023/10/21 11:22:26;;;;;;;40.75;8.50;;;;;;;;;;5127057;28;20047;-42
2023/10/21 11:24:56;;;;;;;63.10;15.77;;;;;;;;;;5127234;28;20023;-47
2023/10/21 11:27:23;;;;;;;62.40;16.08;;;;;;;;;;5127172;28;20257;-42
2023/10/21 11:29:52;;;;;;;75.25;12.98;;;;;;;;;;5126863;28;20027;-43
2023/10/21 11:32:45;;;;;;;61.50;9.25;;;;;;;;;;5126833;28;20035;-42
2023/10/21 11:35:14;;;;;;;45.97;7.40;;;;;;;;;;5123907;28;20327;-40
2023/10/21 11:37:41;;;;;;;31.77;5.53;;;;;;;;;;5125543;28;20315;-37
2023/10/21 11:40:09;;;;;;;22.60;4.72;;;;;;;;;;5125506;28;20055;-36
2023/10/21 11:42:37;;;;;;;11.20;3.40;;;;;;;;;;5126707;28;20280;-45
2023/10/21 11:45:06;;;;;;;14.63;3.28;;;;;;;;;;5125130;28;20407;-39
2023/10/21 11:47:33;;;;;;;11.07;3.05;;;;;;;;;;5126728;28;20084;-40
2023/10/21 11:50:00;;;;;;;9.48;2.72;;;;;;;;;;5127003;28;20190;-39
2023/10/21 11:52:27;;;;;;;4.60;2.15;;;;;;;;;;5125194;28;20011;-41
2023/10/21 12:43:50;;;;;;;2.55;0.90;;;;;;;;;;5126495;28;20030;-40
2023/10/21 12:46:17;;;;;;;5.60;1.10;;;;;;;;;;5125806;28;20043;-49
2023/10/21 12:48:51;;;;;;;4.15;1.05;;;;;;;;;;5119390;28;20035;-42
2023/10/21 12:51:19;;;;;;;1.75;0.82;;;;;;;;;;5126027;28;20032;-42
2023/10/21 12:53:46;;;;;;;2.55;1.00;;;;;;;;;;5107784;28;20024;-39
2023/10/21 12:56:13;;;;;;;5.28;1.13;;;;;;;;;;5125298;28;20034;-39
2023/10/21 12:58:40;;;;;;;3.60;1.25;;;;;;;;;;5124428;28;20079;-38
2023/10/21 13:01:12;;;;;;;3.85;1.20;;;;;;;;;;5125538;28;20067;-41
2023/10/21 13:03:39;;;;;;;1.73;0.90;;;;;;;;;;5125756;28;20031;-40
2023/10/21 13:06:06;;;;;;;1.25;0.63;;;;;;;;;;5122161;28;20032;-40
2023/10/21 13:08:34;;;;;;;2.53;0.80;;;;;;;;;;5114995;28;20255;-42
2023/10/21 13:11:01;;;;;;;2.38;0.80;;;;;;;;;;5104923;28;20036;-41
2023/10/21 13:13:28;;;;;;;3.97;0.85;;;;;;;;;;5104995;28;20020;-36
2023/10/21 13:15:55;;;;;;;2.10;0.63;;;;;;;;;;5105561;28;20322;-44
2023/10/21 13:18:23;;;;;;;2.35;0.70;;;;;;;;;;5117740;27;20027;-48
2023/10/21 13:20:52;;;;;;;1.63;0.80;;;;;;;;;;5124646;28;20019;-45
2023/10/21 13:23:19;;;;;;;2.60;0.73;;;;;;;;;;5123120;28;20055;-39
2023/10/21 13:25:46;;;;;;;2.38;0.90;;;;;;;;;;5100374;28;20088;-35
2023/10/21 13:28:12;;;;;;;1.27;0.60;;;;;;;;;;5113833;28;20050;-41
2023/10/21 13:30:40;;;;;;;1.88;0.70;;;;;;;;;;5098326;28;20031;-41
2023/10/21 13:33:09;;;;;;;1.30;0.82;;;;;;;;;;5114802;27;20043;-36
2023/10/21 13:35:36;;;;;;;3.25;0.93;;;;;;;;;;5112918;28;20320;-41
2023/10/21 13:38:03;;;;;;;2.92;0.75;;;;;;;;;;5104562;28;20039;-36
2023/10/21 13:40:30;;;;;;;2.17;0.80;;;;;;;;;;5105052;28;20047;-39
2023/10/21 13:42:57;;;;;;;2.50;0.60;;;;;;;;;;5086579;28;20028;-37
2023/10/21 13:45:26;;;;;;;1.67;0.82;;;;;;;;;;5104847;28;20032;-38
2023/10/21 13:47:53;;;;;;;2.97;1.00;;;;;;;;;;5104284;28;20223;-40
2023/10/21 13:50:23;;;;;;;2.15;0.80;;;;;;;;;;5105951;28;20028;-35
2023/10/21 13:52:50;;;;;;;1.05;0.80;;;;;;;;;;5121618;28;20052;-45
2023/10/21 13:55:17;;;;;;;1.48;0.88;;;;;;;;;;5125165;28;20073;-41
2023/10/21 13:57:45;;;;;;;4.93;1.35;;;;;;;;;;5106393;28;20035;-41
2023/10/21 14:00:33;;;;;;;5.68;2.05;;;;;;;;;;5109754;28;20347;-43
2023/10/21 14:03:00;;;;;;;10.13;4.85;;;;;;;;;;5108797;28;20369;-42
2023/10/21 14:05:28;;;;;;;18.75;12.05;;;;;;;;;;5121915;28;20047;-46
2023/10/21 14:07:55;;;;;;;23.50;16.90;;;;;;;;;;5125023;28;20335;-43
2023/10/21 14:10:21;;;;;;;13.30;9.38;;;;;;;;;;5124811;28;20031;-42
2023/10/21 14:12:48;;;;;;;11.65;7.43;;;;;;;;;;5124513;28;20031;-41
2023/10/21 14:15:18;;;;;;;14.77;5.95;;;;;;;;;;5124700;28;20047;-40
2023/10/21 14:17:46;;;;;;;6.88;3.78;;;;;;;;;;5124616;28;20042;-39
2023/10/21 14:20:12;;;;;;;5.38;2.97;;;;;;;;;;5124546;28;20353;-36
2023/10/21 14:22:39;;;;;;;6.05;2.35;;;;;;;;;;5116029;28;20027;-39
2023/10/21 14:25:07;;;;;;;3.88;1.70;;;;;;;;;;5104434;28;20070;-42
2023/10/21 14:27:36;;;;;;;2.80;1.20;;;;;;;;;;5103706;28;20036;-43
2023/10/21 14:30:09;;;;;;;3.33;1.30;;;;;;;;;;5104274;28;20030;-42
2023/10/21 14:32:37;;;;;;;3.50;0.85;;;;;;;;;;5103849;28;20058;-37
2023/10/21 14:35:07;;;;;;;3.65;0.90;;;;;;;;;;5107391;28;20027;-40
2023/10/21 14:37:35;;;;;;;2.00;0.90;;;;;;;;;;5112947;28;20015;-37
2023/10/21 14:40:10;;;;;;;4.22;0.70;;;;;;;;;;5124438;28;20032;-36
2023/10/21 14:42:38;;;;;;;2.45;0.77;;;;;;;;;;5111902;28;20383;-36
2023/10/21 14:45:07;;;;;;;1.50;0.80;;;;;;;;;;5089733;28;20234;-40
2023/10/21 14:47:35;;;;;;;1.52;0.90;;;;;;;;;;5103651;28;20056;-37
2023/10/21 14:50:03;;;;;;;2.88;0.70;;;;;;;;;;5108133;28;20027;-38
2023/10/21 14:52:30;;;;;;;3.60;0.60;;;;;;;;;;5109883;28;20020;-36
2023/10/21 14:54:57;;;;;;;2.13;0.60;;;;;;;;;;5116229;28;20024;-35
2023/10/21 14:57:24;;;;;;;1.67;0.60;;;;;;;;;;5107333;28;20028;-39
2023/10/21 14:59:51;;;;;;;0.60;0.40;;;;;;;;;;5107474;28;20028;-44
2023/10/21 15:02:18;;;;;;;0.82;0.52;;;;;;;;;;5107095;28;20055;-42
2023/10/21 15:04:45;;;;;;;2.00;0.55;;;;;;;;;;5107479;28;20016;-42
2023/10/21 15:07:12;;;;;;;1.15;0.40;;;;;;;;;;5110792;28;20053;-38
2023/10/21 15:09:39;;;;;;;0.60;0.60;;;;;;;;;;5127643;28;20039;-43
2023/10/21 15:12:06;;;;;;;0.88;0.40;;;;;;;;;;5127712;28;20019;-39
2023/10/21 15:14:33;;;;;;;1.45;0.70;;;;;;;;;;5127790;28;20016;-39
2023/10/21 15:17:00;;;;;;;0.68;0.52;;;;;;;;;;5127316;28;20031;-45
2023/10/21 15:19:26;;;;;;;0.40;0.40;;;;;;;;;;5127665;28;20022;-43
2023/10/21 15:21:53;;;;;;;1.33;0.60;;;;;;;;;;5127672;28;20032;-42
2023/10/21 15:24:19;;;;;;;0.73;0.60;;;;;;;;;;5127488;28;20139;-56
2023/10/21 15:26:46;;;;;;;1.65;0.60;;;;;;;;;;5126261;28;20091;-41
2023/10/21 15:29:13;;;;;;;1.83;0.70;;;;;;;;;;5121074;28;20026;-42
2023/10/21 15:31:41;;;;;;;3.15;0.82;;;;;;;;;;5117781;28;20027;-40